KSANKTSP

Guest
Details From KSAN - San Diego Intl
To KTSP - TEHACHAPI MUNI
Flight Number -
Tags decoded
Created
Modified
Stats Distance 163 nm / 302 km
Max Altitude 0 ft / 0 m
Waypoints 9
Social Downloads 1
Likes 0
Share VATSIM

Download

Looking for another format? Having issues loading an existing format? Contact us
Advertisement - Login to hide

Notes

Requested: KSAN CLSTR BOKNE MAFAN LNSAY OCN PDZ PMD KTSP

Route

KSAN CLSTR BOKNE MAFAN LNSAY OCN PDZ PMD KTSP

ID Type Via Altitude Latitude Longitude Leg Dist Tot Dist Heading (true) Name
O KSAN APT - 0 ft / 0 m 32.73356˚ -117.18966˚ - 0 nm - San Diego Intl
CLSTR FIX - 0 ft / 0 m 32.86931˚ -117.34015˚ 11 nm 11 nm 317° / 317° -
BOKNE FIX - 0 ft / 0 m 32.97352˚ -117.36186˚ 6 nm 17 nm 350° / 350° -
MAFAN FIX - 0 ft / 0 m 33.06831˚ -117.42971˚ 6 nm 24 nm 329° / 329° -
LNSAY FIX - 0 ft / 0 m 33.14617˚ -117.48557˚ 5 nm 29 nm 329° / 329° -
OCN VOR - 0 ft / 0 m 33.24064˚ -117.41772˚ 6 nm 36 nm 31° / 31° OCEANSIDE VORTAC
PDZ VOR - 0 ft / 0 m 33.91833˚ -117.53000˚ 41 nm 77 nm 352° / 352° PARADISE VORTAC
PMD VOR - 0 ft / 0 m 34.63139˚ -118.06383˚ 50 nm 127 nm 328° / 328° PALMDALE VORTAC
O KTSP APT - 0 ft / 0 m 35.13500˚ -118.43922˚ 35 nm 163 nm 329° / 328° TEHACHAPI MUNI

Altitude Profile

Advertisement - Login to hide

Weather


0- 5 10 15 20 25 30 35+ Temperature / ° C

Clouds and Precipitation
Forecast for 2017-12-17 18:00 UTC. Updated an hour ago

Ground ~20,000 ft ~40,000 ft Winds

KSAN

Details ICAO KSAN (SAN)
Name San Diego Intl
Region United States
Timezone America/Los_Angeles (UTC-8.0)
Stats Elevation 17 ft / 5 m (AMSL)
Location 32.733556° -117.189658°
Runways 1
Magnetic Variation 11.524° E

METAR

KSAN 171351Z 00000KT 10SM SCT110 11/07 A2984 RMK AO2 SLP104 T01060072

Decode

TAF

KSAN 171139Z 1712/1818 VRB04KT P6SM FEW100 WS010/04025KT FM171600 VRB04KT P6SM FEW100 FM172100 30009KT P6SM SKC FM180100 VRB04KT P6SM SKC

Decode

Departure Runways

ID Width Length Bearing (true) Bearing (mag) Surface Threshold Offset Overrun Length
09 200 ft / 61 m 9,387 ft / 2,861 m 106.07° 94.55° Asphalt 699 ft / 213 m 269 ft / 82 m
27 200 ft / 61 m 9,387 ft / 2,861 m 286.08° 274.56° Asphalt 1,811 ft / 552 m 0 ft / 0 m

KTSP

Details ICAO KTSP
Name TEHACHAPI MUNI
Region United States
Timezone America/Los_Angeles (UTC-8.0)
Stats Elevation 4,001 ft / 1,220 m (AMSL)
Location 35.134999° -118.439218°
Runways 1
Magnetic Variation 12.244° E

METAR

KTSP 171435Z AUTO 07018G25KT 10SM CLR 04/M19 A3001 RMK AO2

Decode

TAF

Not found

Destination Runways

ID Width Length Bearing (true) Bearing (mag) Surface Threshold Offset Overrun Length
11 85 ft / 26 m 4,027 ft / 1,227 m 124.75° 112.51° Asphalt 305 ft / 93 m 0 ft / 0 m
29 85 ft / 26 m 4,027 ft / 1,227 m 304.75° 292.51° Asphalt 384 ft / 117 m 0 ft / 0 m

Popular Alternatives